ftmx54

TAF MMCZ 090418Z 0906/1012 12005KT P6SM SCT015 
         TEMPO 0912/0915 BKN015 
         FM091600 10015KT P6SM SCT015 
         FM100300 09010KT P6SM SKC=
TAF MMMD 090418Z 0906/1012 13005KT P6SM SCT030 TX34/0921Z TN22/0912Z 
         TEMPO 0911/0914 3SM HZ BKN008 
         FM091500 10015KT P6SM SCT015 
         BECMG 0917/0918 SCT020 
         TEMPO 0922/1002 BKN020 
         FM100300 10005KT P6SM SCT020=
TAF MMTG 090418Z 0906/1006 00000KT P6SM SCT080 SCT300 
         TEMPO 0911/0915 3SM BR HZ BKN020 
         FM091700 10005KT P6SM SCT020 
         FM100300 00000KT P6SM SCT015=
TAF MMTP 090418Z 0906/1012 00000KT P6SM SKC 
         FM091800 24010KT P6SM SCT030 
         FM101200 00000KT P6SM SKC=
TAF MMUN 090418Z 0906/1012 10007KT P6SM SCT015 TX30/0919Z TN22/0913Z 
         FM091700 09015KT P6SM SCT015 
         FM100300 00000KT P6SM SKC=